Inca, Spain
Current Conditions -  °F | °C
As of 11:00 AM on Friday 19 Dec 2014 (Local Time) from LEPA Reporting Station
Clear Clear  
Wind Chill: 61°   Ceiling: Unl
Heat Index: 61°   Visibility: 6mi
Dew Point: 52°   Wind: 0mph
Humidity: 72%   Direction: NA
Pressure: 30.36"   Gusts: NA
Location:  39.72°N, 2.91°E
Report Text: LEPA 191000Z 00000KT CAVOK 16/11 Q1028 NOSIG
Loading
Personal Weather Stations






























Interactive Weather Map New forecast layout! Learn more

10-Day Weather Forecast

Advertisements
Track Severe Weather on mobile